sensor_id;sensor_type;location;lat;lon;timestamp;temperature;humidity
21807;DHT22;11065;50.786;7.840;2024-03-08T00:00:50;6.00;43.70
21807;DHT22;11065;50.786;7.840;2024-03-08T00:03:18;6.00;43.70
21807;DHT22;11065;50.786;7.840;2024-03-08T00:05:46;6.00;43.70
21807;DHT22;11065;50.786;7.840;2024-03-08T00:08:14;6.00;43.80
21807;DHT22;11065;50.786;7.840;2024-03-08T00:10:42;6.00;43.80
21807;DHT22;11065;50.786;7.840;2024-03-08T00:13:11;5.90;43.80
21807;DHT22;11065;50.786;7.840;2024-03-08T00:15:39;5.90;43.80
21807;DHT22;11065;50.786;7.840;2024-03-08T00:18:08;5.90;43.80
21807;DHT22;11065;50.786;7.840;2024-03-08T00:20:37;5.80;43.90
21807;DHT22;11065;50.786;7.840;2024-03-08T00:23:05;5.90;43.90
21807;DHT22;11065;50.786;7.840;2024-03-08T00:25:33;5.90;43.90
21807;DHT22;11065;50.786;7.840;2024-03-08T00:28:02;5.80;44.00
21807;DHT22;11065;50.786;7.840;2024-03-08T00:30:32;5.80;44.00
21807;DHT22;11065;50.786;7.840;2024-03-08T00:33:01;5.80;44.00
21807;DHT22;11065;50.786;7.840;2024-03-08T00:35:29;5.80;44.00
21807;DHT22;11065;50.786;7.840;2024-03-08T00:37:58;5.80;44.00
21807;DHT22;11065;50.786;7.840;2024-03-08T00:40:24;5.80;44.10
21807;DHT22;11065;50.786;7.840;2024-03-08T00:42:52;5.80;44.10
21807;DHT22;11065;50.786;7.840;2024-03-08T00:45:20;5.80;44.10
21807;DHT22;11065;50.786;7.840;2024-03-08T00:47:50;5.80;44.20
21807;DHT22;11065;50.786;7.840;2024-03-08T00:50:18;5.70;44.10
21807;DHT22;11065;50.786;7.840;2024-03-08T00:52:46;5.70;44.10
21807;DHT22;11065;50.786;7.840;2024-03-08T00:55:14;5.70;44.10
21807;DHT22;11065;50.786;7.840;2024-03-08T00:57:42;5.70;44.20
21807;DHT22;11065;50.786;7.840;2024-03-08T01:00:11;5.70;44.20
21807;DHT22;11065;50.786;7.840;2024-03-08T01:02:39;5.70;44.20
21807;DHT22;11065;50.786;7.840;2024-03-08T01:05:09;5.70;44.20
21807;DHT22;11065;50.786;7.840;2024-03-08T01:07:37;5.60;44.20
21807;DHT22;11065;50.786;7.840;2024-03-08T01:10:06;5.60;44.20
21807;DHT22;11065;50.786;7.840;2024-03-08T01:12:36;5.60;44.30
21807;DHT22;11065;50.786;7.840;2024-03-08T01:15:05;5.60;44.30
21807;DHT22;11065;50.786;7.840;2024-03-08T01:17:34;5.60;44.30
21807;DHT22;11065;50.786;7.840;2024-03-08T01:20:02;5.60;44.40
21807;DHT22;11065;50.786;7.840;2024-03-08T01:22:31;5.60;44.30
21807;DHT22;11065;50.786;7.840;2024-03-08T01:24:59;5.60;44.40
21807;DHT22;11065;50.786;7.840;2024-03-08T01:27:27;5.60;44.40
21807;DHT22;11065;50.786;7.840;2024-03-08T01:29:55;5.60;44.40
21807;DHT22;11065;50.786;7.840;2024-03-08T01:32:23;5.60;44.50
21807;DHT22;11065;50.786;7.840;2024-03-08T01:34:51;5.50;44.40
21807;DHT22;11065;50.786;7.840;2024-03-08T01:37:19;5.50;44.50
21807;DHT22;11065;50.786;7.840;2024-03-08T01:39:48;5.50;44.50
21807;DHT22;11065;50.786;7.840;2024-03-08T01:42:16;5.50;44.50
21807;DHT22;11065;50.786;7.840;2024-03-08T01:44:44;5.50;44.50
21807;DHT22;11065;50.786;7.840;2024-03-08T01:47:12;5.50;44.50
21807;DHT22;11065;50.786;7.840;2024-03-08T01:49:40;5.50;44.60
21807;DHT22;11065;50.786;7.840;2024-03-08T01:52:08;5.50;44.60
21807;DHT22;11065;50.786;7.840;2024-03-08T01:54:36;5.50;44.60
21807;DHT22;11065;50.786;7.840;2024-03-08T01:57:06;5.40;44.60
21807;DHT22;11065;50.786;7.840;2024-03-08T01:59:34;5.50;44.70
21807;DHT22;11065;50.786;7.840;2024-03-08T02:02:04;5.40;44.60
21807;DHT22;11065;50.786;7.840;2024-03-08T02:04:35;5.40;44.60
21807;DHT22;11065;50.786;7.840;2024-03-08T02:07:05;5.40;44.60
21807;DHT22;11065;50.786;7.840;2024-03-08T02:09:37;5.40;44.60
21807;DHT22;11065;50.786;7.840;2024-03-08T02:12:07;5.40;44.60
21807;DHT22;11065;50.786;7.840;2024-03-08T02:14:38;5.40;44.70
21807;DHT22;11065;50.786;7.840;2024-03-08T02:17:07;5.40;44.70
21807;DHT22;11065;50.786;7.840;2024-03-08T02:19:35;5.40;44.70
21807;DHT22;11065;50.786;7.840;2024-03-08T02:22:05;5.30;44.70
21807;DHT22;11065;50.786;7.840;2024-03-08T02:24:33;5.30;45.30
21807;DHT22;11065;50.786;7.840;2024-03-08T02:27:01;5.40;44.80
21807;DHT22;11065;50.786;7.840;2024-03-08T02:29:30;5.30;44.80
21807;DHT22;11065;50.786;7.840;2024-03-08T02:31:59;5.30;44.80
21807;DHT22;11065;50.786;7.840;2024-03-08T02:34:27;5.30;44.80
21807;DHT22;11065;50.786;7.840;2024-03-08T02:36:55;5.30;44.80
21807;DHT22;11065;50.786;7.840;2024-03-08T02:39:25;5.30;44.80
21807;DHT22;11065;50.786;7.840;2024-03-08T02:41:54;5.30;44.90
21807;DHT22;11065;50.786;7.840;2024-03-08T02:44:22;5.30;44.80
21807;DHT22;11065;50.786;7.840;2024-03-08T02:46:50;5.30;44.90
21807;DHT22;11065;50.786;7.840;2024-03-08T02:49:21;5.30;44.90
21807;DHT22;11065;50.786;7.840;2024-03-08T02:51:49;5.20;44.90
21807;DHT22;11065;50.786;7.840;2024-03-08T02:54:17;5.20;45.00
21807;DHT22;11065;50.786;7.840;2024-03-08T02:56:47;5.20;44.90
21807;DHT22;11065;50.786;7.840;2024-03-08T02:59:16;5.20;45.00
21807;DHT22;11065;50.786;7.840;2024-03-08T03:01:45;5.20;45.00
21807;DHT22;11065;50.786;7.840;2024-03-08T03:04:13;5.20;45.00
21807;DHT22;11065;50.786;7.840;2024-03-08T03:06:41;5.20;45.00
21807;DHT22;11065;50.786;7.840;2024-03-08T03:09:09;5.10;45.00
21807;DHT22;11065;50.786;7.840;2024-03-08T03:11:37;5.10;45.10
21807;DHT22;11065;50.786;7.840;2024-03-08T03:14:07;5.10;45.10
21807;DHT22;11065;50.786;7.840;2024-03-08T03:16:35;5.10;45.10
21807;DHT22;11065;50.786;7.840;2024-03-08T03:19:03;5.10;45.10
21807;DHT22;11065;50.786;7.840;2024-03-08T03:21:32;5.00;45.10
21807;DHT22;11065;50.786;7.840;2024-03-08T03:24:02;5.00;45.10
21807;DHT22;11065;50.786;7.840;2024-03-08T03:26:31;5.00;45.60
21807;DHT22;11065;50.786;7.840;2024-03-08T03:28:59;5.00;45.20
21807;DHT22;11065;50.786;7.840;2024-03-08T03:31:28;5.00;45.20
21807;DHT22;11065;50.786;7.840;2024-03-08T03:33:56;5.00;45.20
21807;DHT22;11065;50.786;7.840;2024-03-08T03:36:28;5.00;45.30
21807;DHT22;11065;50.786;7.840;2024-03-08T03:38:56;4.90;45.20
21807;DHT22;11065;50.786;7.840;2024-03-08T03:41:33;4.90;45.30
21807;DHT22;11065;50.786;7.840;2024-03-08T03:44:01;4.90;45.20
21807;DHT22;11065;50.786;7.840;2024-03-08T03:46:31;4.90;45.30
21807;DHT22;11065;50.786;7.840;2024-03-08T03:48:58;4.90;45.30
21807;DHT22;11065;50.786;7.840;2024-03-08T03:51:26;4.90;45.30
21807;DHT22;11065;50.786;7.840;2024-03-08T03:53:55;4.80;45.30
21807;DHT22;11065;50.786;7.840;2024-03-08T03:56:25;4.80;45.40
21807;DHT22;11065;50.786;7.840;2024-03-08T03:58:54;4.80;45.40
21807;DHT22;11065;50.786;7.840;2024-03-08T04:01:22;4.80;45.40
21807;DHT22;11065;50.786;7.840;2024-03-08T04:03:52;4.80;45.40
21807;DHT22;11065;50.786;7.840;2024-03-08T04:06:20;4.80;45.50
21807;DHT22;11065;50.786;7.840;2024-03-08T04:08:49;4.80;45.40
21807;DHT22;11065;50.786;7.840;2024-03-08T04:11:17;4.80;45.50
21807;DHT22;11065;50.786;7.840;2024-03-08T04:13:45;4.80;45.50
21807;DHT22;11065;50.786;7.840;2024-03-08T04:16:13;4.80;45.50
21807;DHT22;11065;50.786;7.840;2024-03-08T04:18:41;4.70;45.50
21807;DHT22;11065;50.786;7.840;2024-03-08T04:21:11;4.70;45.50
21807;DHT22;11065;50.786;7.840;2024-03-08T04:23:39;4.70;45.60
21807;DHT22;11065;50.786;7.840;2024-03-08T04:26:07;4.70;45.60
21807;DHT22;11065;50.786;7.840;2024-03-08T04:28:35;4.70;45.60
21807;DHT22;11065;50.786;7.840;2024-03-08T04:31:04;4.70;45.60
21807;DHT22;11065;50.786;7.840;2024-03-08T04:33:31;4.70;45.70
21807;DHT22;11065;50.786;7.840;2024-03-08T04:36:02;4.70;45.70
21807;DHT22;11065;50.786;7.840;2024-03-08T04:38:32;4.70;45.70
21807;DHT22;11065;50.786;7.840;2024-03-08T04:41:01;4.70;45.70
21807;DHT22;11065;50.786;7.840;2024-03-08T04:43:29;4.60;45.70
21807;DHT22;11065;50.786;7.840;2024-03-08T04:45:57;4.60;45.70
21807;DHT22;11065;50.786;7.840;2024-03-08T04:48:25;4.60;45.70
21807;DHT22;11065;50.786;7.840;2024-03-08T04:50:53;4.60;45.70
21807;DHT22;11065;50.786;7.840;2024-03-08T04:53:22;4.60;45.80
21807;DHT22;11065;50.786;7.840;2024-03-08T04:55:51;4.60;45.80
21807;DHT22;11065;50.786;7.840;2024-03-08T04:58:19;4.50;45.80
21807;DHT22;11065;50.786;7.840;2024-03-08T05:00:47;4.50;46.30
21807;DHT22;11065;50.786;7.840;2024-03-08T05:03:16;4.50;45.90
21807;DHT22;11065;50.786;7.840;2024-03-08T05:05:44;4.50;45.80
21807;DHT22;11065;50.786;7.840;2024-03-08T05:08:12;4.40;45.80
21807;DHT22;11065;50.786;7.840;2024-03-08T05:10:40;4.40;45.80
21807;DHT22;11065;50.786;7.840;2024-03-08T05:13:09;4.40;45.80
21807;DHT22;11065;50.786;7.840;2024-03-08T05:15:37;4.40;45.90
21807;DHT22;11065;50.786;7.840;2024-03-08T05:18:06;4.30;45.80
21807;DHT22;11065;50.786;7.840;2024-03-08T05:20:35;4.30;45.90
21807;DHT22;11065;50.786;7.840;2024-03-08T05:23:04;4.30;45.90
21807;DHT22;11065;50.786;7.840;2024-03-08T05:25:32;4.20;46.00
21807;DHT22;11065;50.786;7.840;2024-03-08T05:28:00;4.20;46.00
21807;DHT22;11065;50.786;7.840;2024-03-08T05:30:29;4.20;46.00
21807;DHT22;11065;50.786;7.840;2024-03-08T05:32:58;4.20;46.10
21807;DHT22;11065;50.786;7.840;2024-03-08T05:35:26;4.20;46.10
21807;DHT22;11065;50.786;7.840;2024-03-08T05:37:54;4.10;46.10
21807;DHT22;11065;50.786;7.840;2024-03-08T05:40:22;4.10;46.10
21807;DHT22;11065;50.786;7.840;2024-03-08T05:42:50;4.10;46.20
21807;DHT22;11065;50.786;7.840;2024-03-08T05:45:18;4.10;46.20
21807;DHT22;11065;50.786;7.840;2024-03-08T05:47:48;4.10;46.20
21807;DHT22;11065;50.786;7.840;2024-03-08T05:50:16;4.00;46.30
21807;DHT22;11065;50.786;7.840;2024-03-08T05:52:44;4.00;46.30
21807;DHT22;11065;50.786;7.840;2024-03-08T05:55:12;4.00;46.30
21807;DHT22;11065;50.786;7.840;2024-03-08T05:57:41;4.00;46.30
21807;DHT22;11065;50.786;7.840;2024-03-08T06:00:09;4.00;46.30
21807;DHT22;11065;50.786;7.840;2024-03-08T06:02:39;4.00;46.40
21807;DHT22;11065;50.786;7.840;2024-03-08T06:05:10;3.90;46.30
21807;DHT22;11065;50.786;7.840;2024-03-08T06:07:38;3.90;46.40
21807;DHT22;11065;50.786;7.840;2024-03-08T06:10:08;3.90;46.40
21807;DHT22;11065;50.786;7.840;2024-03-08T06:12:37;3.90;46.50
21807;DHT22;11065;50.786;7.840;2024-03-08T06:15:09;3.80;46.40
21807;DHT22;11065;50.786;7.840;2024-03-08T06:17:41;3.90;46.50
21807;DHT22;11065;50.786;7.840;2024-03-08T06:20:11;3.80;46.50
21807;DHT22;11065;50.786;7.840;2024-03-08T06:22:42;3.90;46.60
21807;DHT22;11065;50.786;7.840;2024-03-08T06:25:11;3.80;46.60
21807;DHT22;11065;50.786;7.840;2024-03-08T06:27:40;3.90;46.70
21807;DHT22;11065;50.786;7.840;2024-03-08T06:30:10;3.80;46.80
21807;DHT22;11065;50.786;7.840;2024-03-08T06:32:38;3.90;46.90
21807;DHT22;11065;50.786;7.840;2024-03-08T06:35:07;3.80;47.00
21807;DHT22;11065;50.786;7.840;2024-03-08T06:37:38;3.90;47.10
21807;DHT22;11065;50.786;7.840;2024-03-08T06:40:07;3.90;47.20
21807;DHT22;11065;50.786;7.840;2024-03-08T06:42:40;3.90;47.20
21807;DHT22;11065;50.786;7.840;2024-03-08T06:45:09;4.00;47.30
21807;DHT22;11065;50.786;7.840;2024-03-08T06:47:37;4.00;47.30
21807;DHT22;11065;50.786;7.840;2024-03-08T06:50:06;4.00;47.40
21807;DHT22;11065;50.786;7.840;2024-03-08T06:52:34;4.10;47.60
21807;DHT22;11065;50.786;7.840;2024-03-08T06:55:05;4.20;47.80
21807;DHT22;11065;50.786;7.840;2024-03-08T06:57:33;4.20;47.80
21807;DHT22;11065;50.786;7.840;2024-03-08T07:00:01;4.30;47.90
21807;DHT22;11065;50.786;7.840;2024-03-08T07:02:29;4.30;48.10
21807;DHT22;11065;50.786;7.840;2024-03-08T07:04:59;4.40;48.10
21807;DHT22;11065;50.786;7.840;2024-03-08T07:07:28;4.50;48.00
21807;DHT22;11065;50.786;7.840;2024-03-08T07:09:57;4.60;47.90
21807;DHT22;11065;50.786;7.840;2024-03-08T07:12:26;4.60;47.80
21807;DHT22;11065;50.786;7.840;2024-03-08T07:14:54;4.70;47.90
21807;DHT22;11065;50.786;7.840;2024-03-08T07:17:22;4.70;47.70
21807;DHT22;11065;50.786;7.840;2024-03-08T07:19:51;4.80;47.70
21807;DHT22;11065;50.786;7.840;2024-03-08T07:22:20;4.80;47.70
21807;DHT22;11065;50.786;7.840;2024-03-08T07:24:50;4.90;47.70
21807;DHT22;11065;50.786;7.840;2024-03-08T07:27:33;4.90;47.70
21807;DHT22;11065;50.786;7.840;2024-03-08T07:30:03;5.00;47.60
21807;DHT22;11065;50.786;7.840;2024-03-08T07:32:35;5.00;47.60
21807;DHT22;11065;50.786;7.840;2024-03-08T07:35:03;5.10;47.50
21807;DHT22;11065;50.786;7.840;2024-03-08T07:37:31;5.10;47.40
21807;DHT22;11065;50.786;7.840;2024-03-08T07:39:59;5.20;47.40
21807;DHT22;11065;50.786;7.840;2024-03-08T07:42:27;5.20;47.40
21807;DHT22;11065;50.786;7.840;2024-03-08T07:44:57;5.30;47.50
21807;DHT22;11065;50.786;7.840;2024-03-08T07:47:26;5.30;47.40
21807;DHT22;11065;50.786;7.840;2024-03-08T07:49:54;5.40;47.50
21807;DHT22;11065;50.786;7.840;2024-03-08T07:52:24;5.40;47.40
21807;DHT22;11065;50.786;7.840;2024-03-08T07:54:52;5.40;47.40
21807;DHT22;11065;50.786;7.840;2024-03-08T07:57:21;5.50;47.40
21807;DHT22;11065;50.786;7.840;2024-03-08T07:59:49;5.60;47.50
21807;DHT22;11065;50.786;7.840;2024-03-08T08:02:19;5.60;47.40
21807;DHT22;11065;50.786;7.840;2024-03-08T08:04:47;5.70;47.40
21807;DHT22;11065;50.786;7.840;2024-03-08T08:07:15;5.70;47.40
21807;DHT22;11065;50.786;7.840;2024-03-08T08:09:43;5.80;47.40
21807;DHT22;11065;50.786;7.840;2024-03-08T08:12:11;5.90;47.50
21807;DHT22;11065;50.786;7.840;2024-03-08T08:14:39;6.00;47.50
21807;DHT22;11065;50.786;7.840;2024-03-08T08:17:07;6.00;47.60
21807;DHT22;11065;50.786;7.840;2024-03-08T08:19:37;6.10;47.60
21807;DHT22;11065;50.786;7.840;2024-03-08T08:22:05;6.20;47.60
21807;DHT22;11065;50.786;7.840;2024-03-08T08:24:35;6.30;47.60
21807;DHT22;11065;50.786;7.840;2024-03-08T08:27:04;6.40;47.50
21807;DHT22;11065;50.786;7.840;2024-03-08T08:29:33;6.50;47.60
21807;DHT22;11065;50.786;7.840;2024-03-08T08:32:02;6.50;47.50
21807;DHT22;11065;50.786;7.840;2024-03-08T08:34:30;6.60;47.40
21807;DHT22;11065;50.786;7.840;2024-03-08T08:36:59;6.70;47.40
21807;DHT22;11065;50.786;7.840;2024-03-08T08:39:28;6.80;47.40
21807;DHT22;11065;50.786;7.840;2024-03-08T08:41:56;6.90;47.40
21807;DHT22;11065;50.786;7.840;2024-03-08T08:44:24;7.00;47.80
21807;DHT22;11065;50.786;7.840;2024-03-08T08:46:52;7.40;48.70
21807;DHT22;11065;50.786;7.840;2024-03-08T08:49:28;8.00;50.20
21807;DHT22;11065;50.786;7.840;2024-03-08T08:51:57;9.00;51.70
21807;DHT22;11065;50.786;7.840;2024-03-08T08:54:38;10.20;52.70
21807;DHT22;11065;50.786;7.840;2024-03-08T08:57:06;11.60;53.30
21807;DHT22;11065;50.786;7.840;2024-03-08T08:59:35;13.00;53.40
21807;DHT22;11065;50.786;7.840;2024-03-08T09:02:03;14.50;53.00
21807;DHT22;11065;50.786;7.840;2024-03-08T09:04:31;15.90;52.40
21807;DHT22;11065;50.786;7.840;2024-03-08T09:06:59;17.20;51.40
21807;DHT22;11065;50.786;7.840;2024-03-08T09:09:28;18.50;50.30
21807;DHT22;11065;50.786;7.840;2024-03-08T09:11:57;19.60;49.10
21807;DHT22;11065;50.786;7.840;2024-03-08T09:14:25;20.80;47.70
21807;DHT22;11065;50.786;7.840;2024-03-08T09:16:53;21.70;46.20
21807;DHT22;11065;50.786;7.840;2024-03-08T09:19:21;22.60;45.20
21807;DHT22;11065;50.786;7.840;2024-03-08T09:21:52;23.40;44.10
21807;DHT22;11065;50.786;7.840;2024-03-08T09:24:21;24.00;43.10
21807;DHT22;11065;50.786;7.840;2024-03-08T09:26:49;24.70;42.50
21807;DHT22;11065;50.786;7.840;2024-03-08T09:29:18;25.30;41.50
21807;DHT22;11065;50.786;7.840;2024-03-08T09:31:46;25.90;40.70
21807;DHT22;11065;50.786;7.840;2024-03-08T09:34:14;26.40;40.40
21807;DHT22;11065;50.786;7.840;2024-03-08T09:36:50;27.00;40.10
21807;DHT22;11065;50.786;7.840;2024-03-08T09:39:19;27.60;39.60
21807;DHT22;11065;50.786;7.840;2024-03-08T09:41:50;28.10;38.90
21807;DHT22;11065;50.786;7.840;2024-03-08T09:44:19;28.60;38.40
21807;DHT22;11065;50.786;7.840;2024-03-08T09:46:47;28.90;37.20
21807;DHT22;11065;50.786;7.840;2024-03-08T09:49:15;29.30;36.60
21807;DHT22;11065;50.786;7.840;2024-03-08T09:51:44;29.50;36.10
21807;DHT22;11065;50.786;7.840;2024-03-08T09:54:13;29.80;35.80
21807;DHT22;11065;50.786;7.840;2024-03-08T09:56:51;30.10;35.50
21807;DHT22;11065;50.786;7.840;2024-03-08T09:59:21;30.30;34.50
21807;DHT22;11065;50.786;7.840;2024-03-08T10:02:14;30.50;34.20
21807;DHT22;11065;50.786;7.840;2024-03-08T10:04:44;30.70;33.80
21807;DHT22;11065;50.786;7.840;2024-03-08T10:07:13;30.90;33.70
21807;DHT22;11065;50.786;7.840;2024-03-08T10:09:42;31.10;33.30
21807;DHT22;11065;50.786;7.840;2024-03-08T10:12:16;31.30;33.00
21807;DHT22;11065;50.786;7.840;2024-03-08T10:14:47;31.50;32.90
21807;DHT22;11065;50.786;7.840;2024-03-08T10:17:15;31.60;32.30
21807;DHT22;11065;50.786;7.840;2024-03-08T10:19:49;31.90;32.40
21807;DHT22;11065;50.786;7.840;2024-03-08T10:22:18;32.20;31.10
21807;DHT22;11065;50.786;7.840;2024-03-08T10:24:47;32.40;31.80
21807;DHT22;11065;50.786;7.840;2024-03-08T10:27:16;32.50;31.30
21807;DHT22;11065;50.786;7.840;2024-03-08T10:29:48;32.70;30.90
21807;DHT22;11065;50.786;7.840;2024-03-08T10:32:18;32.90;30.20
21807;DHT22;11065;50.786;7.840;2024-03-08T10:34:47;33.00;30.30
21807;DHT22;11065;50.786;7.840;2024-03-08T10:37:21;33.10;30.30
21807;DHT22;11065;50.786;7.840;2024-03-08T10:40:00;33.10;29.20
21807;DHT22;11065;50.786;7.840;2024-03-08T10:42:40;33.10;28.90
21807;DHT22;11065;50.786;7.840;2024-03-08T10:45:15;33.10;28.80
21807;DHT22;11065;50.786;7.840;2024-03-08T10:47:49;33.10;28.50
21807;DHT22;11065;50.786;7.840;2024-03-08T10:50:18;33.00;28.60
21807;DHT22;11065;50.786;7.840;2024-03-08T10:52:49;33.00;28.60
21807;DHT22;11065;50.786;7.840;2024-03-08T10:55:18;33.00;28.40
21807;DHT22;11065;50.786;7.840;2024-03-08T10:57:47;33.00;28.20
21807;DHT22;11065;50.786;7.840;2024-03-08T11:00:17;33.00;28.20
21807;DHT22;11065;50.786;7.840;2024-03-08T11:02:53;33.00;27.90
21807;DHT22;11065;50.786;7.840;2024-03-08T11:05:31;33.00;28.00
21807;DHT22;11065;50.786;7.840;2024-03-08T11:08:03;33.00;27.20
21807;DHT22;11065;50.786;7.840;2024-03-08T11:10:32;33.00;27.70
21807;DHT22;11065;50.786;7.840;2024-03-08T11:13:00;33.00;27.70
21807;DHT22;11065;50.786;7.840;2024-03-08T11:15:30;33.00;27.60
21807;DHT22;11065;50.786;7.840;2024-03-08T11:17:59;33.00;27.40
21807;DHT22;11065;50.786;7.840;2024-03-08T11:20:28;33.00;27.30
21807;DHT22;11065;50.786;7.840;2024-03-08T11:23:01;33.00;27.30
21807;DHT22;11065;50.786;7.840;2024-03-08T11:25:37;33.10;27.00
21807;DHT22;11065;50.786;7.840;2024-03-08T11:28:13;33.10;27.00
21807;DHT22;11065;50.786;7.840;2024-03-08T11:31:24;33.10;26.90
21807;DHT22;11065;50.786;7.840;2024-03-08T11:33:53;33.10;26.70
21807;DHT22;11065;50.786;7.840;2024-03-08T11:36:22;33.10;27.00
21807;DHT22;11065;50.786;7.840;2024-03-08T11:38:52;33.10;26.70
21807;DHT22;11065;50.786;7.840;2024-03-08T11:41:23;33.10;26.70
21807;DHT22;11065;50.786;7.840;2024-03-08T11:44:02;33.10;26.50
21807;DHT22;11065;50.786;7.840;2024-03-08T11:46:33;33.10;26.00
21807;DHT22;11065;50.786;7.840;2024-03-08T11:49:02;33.10;26.40
21807;DHT22;11065;50.786;7.840;2024-03-08T11:51:32;33.10;26.30
21807;DHT22;11065;50.786;7.840;2024-03-08T11:54:01;33.00;26.20
21807;DHT22;11065;50.786;7.840;2024-03-08T11:56:29;32.90;26.00
21807;DHT22;11065;50.786;7.840;2024-03-08T11:58:58;32.80;25.80
21807;DHT22;11065;50.786;7.840;2024-03-08T12:01:27;32.70;25.80
21807;DHT22;11065;50.786;7.840;2024-03-08T12:03:59;32.60;25.50
21807;DHT22;11065;50.786;7.840;2024-03-08T12:06:37;32.40;25.50
21807;DHT22;11065;50.786;7.840;2024-03-08T12:09:10;32.30;25.30
21807;DHT22;11065;50.786;7.840;2024-03-08T12:11:39;32.10;25.30
21807;DHT22;11065;50.786;7.840;2024-03-08T12:14:07;31.90;25.40
21807;DHT22;11065;50.786;7.840;2024-03-08T12:16:37;31.80;25.50
21807;DHT22;11065;50.786;7.840;2024-03-08T12:19:06;31.60;25.40
21807;DHT22;11065;50.786;7.840;2024-03-08T12:21:36;31.40;25.10
21807;DHT22;11065;50.786;7.840;2024-03-08T12:24:06;31.20;25.10
21807;DHT22;11065;50.786;7.840;2024-03-08T12:26:37;31.00;25.10
21807;DHT22;11065;50.786;7.840;2024-03-08T12:29:24;30.70;25.30
21807;DHT22;11065;50.786;7.840;2024-03-08T12:31:55;30.50;24.90
21807;DHT22;11065;50.786;7.840;2024-03-08T12:34:26;30.40;25.20
21807;DHT22;11065;50.786;7.840;2024-03-08T12:36:55;30.30;25.30
21807;DHT22;11065;50.786;7.840;2024-03-08T12:39:23;30.30;25.40
21807;DHT22;11065;50.786;7.840;2024-03-08T12:41:54;30.20;25.30
21807;DHT22;11065;50.786;7.840;2024-03-08T12:44:23;30.10;25.20
21807;DHT22;11065;50.786;7.840;2024-03-08T12:46:52;30.00;25.20
21807;DHT22;11065;50.786;7.840;2024-03-08T12:49:21;29.80;25.20
21807;DHT22;11065;50.786;7.840;2024-03-08T12:51:51;29.70;25.20
21807;DHT22;11065;50.786;7.840;2024-03-08T12:54:20;29.60;25.20
21807;DHT22;11065;50.786;7.840;2024-03-08T12:56:50;29.40;25.10
21807;DHT22;11065;50.786;7.840;2024-03-08T12:59:20;29.30;25.10
21807;DHT22;11065;50.786;7.840;2024-03-08T13:01:49;29.20;25.10
21807;DHT22;11065;50.786;7.840;2024-03-08T13:04:18;29.10;25.30
21807;DHT22;11065;50.786;7.840;2024-03-08T13:06:48;29.10;25.20
21807;DHT22;11065;50.786;7.840;2024-03-08T13:09:22;29.00;25.00
21807;DHT22;11065;50.786;7.840;2024-03-08T13:11:51;28.90;25.10
21807;DHT22;11065;50.786;7.840;2024-03-08T13:14:21;28.80;25.10
21807;DHT22;11065;50.786;7.840;2024-03-08T13:16:49;28.70;25.00
21807;DHT22;11065;50.786;7.840;2024-03-08T13:19:18;28.60;25.00
21807;DHT22;11065;50.786;7.840;2024-03-08T13:21:48;28.40;24.90
21807;DHT22;11065;50.786;7.840;2024-03-08T13:24:16;28.20;24.90
21807;DHT22;11065;50.786;7.840;2024-03-08T13:26:47;28.20;25.00
21807;DHT22;11065;50.786;7.840;2024-03-08T13:29:16;28.00;25.00
21807;DHT22;11065;50.786;7.840;2024-03-08T13:31:45;27.80;25.00
21807;DHT22;11065;50.786;7.840;2024-03-08T13:34:18;27.80;25.00
21807;DHT22;11065;50.786;7.840;2024-03-08T13:36:54;27.80;25.10
21807;DHT22;11065;50.786;7.840;2024-03-08T13:39:26;27.70;25.10
21807;DHT22;11065;50.786;7.840;2024-03-08T13:41:57;27.70;25.30
21807;DHT22;11065;50.786;7.840;2024-03-08T13:44:25;27.70;25.30
21807;DHT22;11065;50.786;7.840;2024-03-08T13:46:55;27.70;25.30
21807;DHT22;11065;50.786;7.840;2024-03-08T13:49:25;27.70;25.20
21807;DHT22;11065;50.786;7.840;2024-03-08T13:51:53;27.70;25.30
21807;DHT22;11065;50.786;7.840;2024-03-08T13:54:21;27.70;25.20
21807;DHT22;11065;50.786;7.840;2024-03-08T13:56:49;27.70;25.20
21807;DHT22;11065;50.786;7.840;2024-03-08T13:59:22;27.60;25.10
21807;DHT22;11065;50.786;7.840;2024-03-08T14:01:51;27.60;25.00
21807;DHT22;11065;50.786;7.840;2024-03-08T14:04:19;27.50;25.10
21807;DHT22;11065;50.786;7.840;2024-03-08T14:06:47;27.40;25.00
21807;DHT22;11065;50.786;7.840;2024-03-08T14:09:15;27.30;24.90
21807;DHT22;11065;50.786;7.840;2024-03-08T14:11:44;27.20;24.90
21807;DHT22;11065;50.786;7.840;2024-03-08T14:14:12;27.10;25.30
21807;DHT22;11065;50.786;7.840;2024-03-08T14:16:41;27.00;24.90
21807;DHT22;11065;50.786;7.840;2024-03-08T14:19:10;26.90;25.00
21807;DHT22;11065;50.786;7.840;2024-03-08T14:21:37;26.80;25.00
21807;DHT22;11065;50.786;7.840;2024-03-08T14:24:06;26.70;25.10
21807;DHT22;11065;50.786;7.840;2024-03-08T14:26:34;26.60;25.10
21807;DHT22;11065;50.786;7.840;2024-03-08T14:29:05;26.50;25.00
21807;DHT22;11065;50.786;7.840;2024-03-08T14:31:33;26.40;25.00
21807;DHT22;11065;50.786;7.840;2024-03-08T14:34:04;26.30;25.30
21807;DHT22;11065;50.786;7.840;2024-03-08T14:36:32;26.20;24.90
21807;DHT22;11065;50.786;7.840;2024-03-08T14:39:00;26.20;25.00
21807;DHT22;11065;50.786;7.840;2024-03-08T14:41:28;26.00;24.90
21807;DHT22;11065;50.786;7.840;2024-03-08T14:43:56;26.00;24.80
21807;DHT22;11065;50.786;7.840;2024-03-08T14:46:24;26.00;24.90
21807;DHT22;11065;50.786;7.840;2024-03-08T14:48:53;25.70;24.70
21807;DHT22;11065;50.786;7.840;2024-03-08T14:51:22;25.70;24.70
21807;DHT22;11065;50.786;7.840;2024-03-08T14:53:53;25.50;24.40
21807;DHT22;11065;50.786;7.840;2024-03-08T14:56:21;25.30;24.10
21807;DHT22;11065;50.786;7.840;2024-03-08T14:58:49;25.10;24.10
21807;DHT22;11065;50.786;7.840;2024-03-08T15:01:18;24.70;24.30
21807;DHT22;11065;50.786;7.840;2024-03-08T15:03:49;24.60;24.40
21807;DHT22;11065;50.786;7.840;2024-03-08T15:06:17;24.30;24.50
21807;DHT22;11065;50.786;7.840;2024-03-08T15:08:49;24.20;24.70
21807;DHT22;11065;50.786;7.840;2024-03-08T15:11:18;24.10;25.20
21807;DHT22;11065;50.786;7.840;2024-03-08T15:13:51;24.10;25.20
21807;DHT22;11065;50.786;7.840;2024-03-08T15:16:20;24.10;25.20
21807;DHT22;11065;50.786;7.840;2024-03-08T15:18:50;24.10;25.20
21807;DHT22;11065;50.786;7.840;2024-03-08T15:21:20;24.10;25.20
21807;DHT22;11065;50.786;7.840;2024-03-08T15:23:50;24.10;25.20
21807;DHT22;11065;50.786;7.840;2024-03-08T15:26:20;24.10;25.20
21807;DHT22;11065;50.786;7.840;2024-03-08T15:28:48;24.10;25.20
21807;DHT22;11065;50.786;7.840;2024-03-08T15:31:18;24.00;25.10
21807;DHT22;11065;50.786;7.840;2024-03-08T15:33:48;23.90;25.10
21807;DHT22;11065;50.786;7.840;2024-03-08T15:36:18;23.80;25.40
21807;DHT22;11065;50.786;7.840;2024-03-08T15:38:47;23.70;25.00
21807;DHT22;11065;50.786;7.840;2024-03-08T15:41:20;23.50;25.00
21807;DHT22;11065;50.786;7.840;2024-03-08T15:43:49;23.30;25.00
21807;DHT22;11065;50.786;7.840;2024-03-08T15:46:17;23.20;25.10
21807;DHT22;11065;50.786;7.840;2024-03-08T15:48:49;23.10;25.30
21807;DHT22;11065;50.786;7.840;2024-03-08T15:51:18;23.00;25.30
21807;DHT22;11065;50.786;7.840;2024-03-08T15:53:46;23.00;25.40